TimeCST,TemperatureF,Dew PointF,Humidity,Sea Level PressureIn,VisibilityMPH,Wind Direction,Wind SpeedMPH,Gust SpeedMPH,PrecipitationIn,Events,Conditions,WindDirDegrees,DateUTC
12:15 AM,44.6,41.0,87,30.14,10.0,NNW,11.5,-,N/A,,Clear,340,2013-02-08 06:15:00
12:35 AM,44.6,41.0,87,30.15,10.0,NNW,10.4,-,N/A,,Clear,340,2013-02-08 06:35:00
12:55 AM,42.8,39.2,87,30.16,10.0,NNW,8.1,-,N/A,,Clear,340,2013-02-08 06:55:00
1:15 AM,42.8,39.2,87,30.16,10.0,NNW,9.2,-,N/A,,Clear,340,2013-02-08 07:15:00
1:35 AM,42.8,37.4,81,30.17,10.0,North,8.1,-,N/A,,Clear,350,2013-02-08 07:35:00
1:55 AM,41.0,37.4,87,30.17,10.0,North,10.4,-,N/A,,Clear,350,2013-02-08 07:55:00
2:15 AM,42.8,37.4,81,30.17,10.0,North,10.4,-,N/A,,Clear,360,2013-02-08 08:15:00
2:35 AM,42.8,37.4,81,30.17,10.0,North,11.5,-,N/A,,Clear,360,2013-02-08 08:35:00
2:55 AM,42.8,35.6,76,30.17,10.0,North,12.7,-,N/A,,Clear,360,2013-02-08 08:55:00
3:35 AM,41.0,35.6,81,30.18,10.0,North,12.7,-,N/A,,Clear,360,2013-02-08 09:35:00
3:55 AM,41.0,35.6,81,30.18,10.0,North,16.1,20.7,N/A,,Clear,360,2013-02-08 09:55:00
4:15 AM,41.0,35.6,81,30.18,10.0,North,13.8,-,N/A,,Clear,360,2013-02-08 10:15:00
4:35 AM,39.2,35.6,87,30.19,10.0,North,11.5,-,N/A,,Clear,360,2013-02-08 10:35:00
4:55 AM,37.4,33.8,87,30.20,10.0,North,10.4,-,N/A,,Clear,360,2013-02-08 10:55:00
5:15 AM,37.4,33.8,87,30.20,10.0,North,10.4,-,N/A,,Clear,360,2013-02-08 11:15:00
5:35 AM,37.4,33.8,87,30.21,10.0,North,11.5,-,N/A,,Clear,360,2013-02-08 11:35:00
6:55 AM,35.6,32.0,87,30.24,10.0,North,5.8,-,N/A,,Clear,360,2013-02-08 12:55:00
10:50 AM,51.8,37.4,58,30.30,10.0,ENE,8.1,-,N/A,,Clear,60,2013-02-08 16:50:00
11:55 AM,53.6,37.4,54,30.27,10.0,NE,8.1,-,N/A,,Clear,40,2013-02-08 17:55:00
1:55 PM,60.8,32.0,34,30.22,10.0,ENE,9.2,-,N/A,,Clear,60,2013-02-08 19:55:00
3:55 PM,60.8,32.0,34,30.17,10.0,ENE,8.1,-,N/A,,Clear,70,2013-02-08 21:55:00
7:55 PM,46.4,35.6,66,30.15,10.0,ENE,6.9,-,N/A,,Clear,70,2013-02-09 01:55:00
10:35 PM,37.4,33.8,87,30.16,10.0,Calm,Calm,-,N/A,,Clear,0,2013-02-09 04:35:00
10:55 PM,39.2,33.8,81,30.15,10.0,Calm,Calm,-,N/A,,Clear,0,2013-02-09 04:55:00
11:15 PM,37.4,33.8,87,30.14,10.0,Calm,Calm,-,N/A,,Clear,0,2013-02-09 05:15:00
11:35 PM,37.4,32.0,81,30.14,10.0,Calm,Calm,-,N/A,,Clear,0,2013-02-09 05:35:00
11:55 PM,35.6,32.0,87,30.14,10.0,Calm,Calm,-,N/A,,Clear,0,2013-02-09 05:55:00